sensor_id;sensor_type;location;lat;lon;timestamp;P1;durP1;ratioP1;P2;durP2;ratioP2
18544;SDS011;9402;51.460;7.276;2024-01-30T00:01:38;10.80;;;6.30;;
18544;SDS011;9402;51.460;7.276;2024-01-30T00:03:39;12.53;;;6.97;;
18544;SDS011;9402;51.460;7.276;2024-01-30T00:05:42;11.63;;;6.90;;
18544;SDS011;9402;51.460;7.276;2024-01-30T00:07:44;13.27;;;6.53;;
18544;SDS011;9402;51.460;7.276;2024-01-30T00:09:46;12.60;;;6.43;;
18544;SDS011;9402;51.460;7.276;2024-01-30T00:11:48;11.17;;;6.90;;
18544;SDS011;9402;51.460;7.276;2024-01-30T00:13:49;11.90;;;6.97;;
18544;SDS011;9402;51.460;7.276;2024-01-30T00:15:51;14.30;;;7.50;;
18544;SDS011;9402;51.460;7.276;2024-01-30T00:17:52;16.17;;;8.40;;
18544;SDS011;9402;51.460;7.276;2024-01-30T00:19:54;8.50;;;6.50;;
18544;SDS011;9402;51.460;7.276;2024-01-30T00:21:56;9.20;;;6.80;;
18544;SDS011;9402;51.460;7.276;2024-01-30T00:23:58;9.53;;;6.73;;
18544;SDS011;9402;51.460;7.276;2024-01-30T00:25:58;14.67;;;7.53;;
18544;SDS011;9402;51.460;7.276;2024-01-30T00:28:00;14.10;;;7.20;;
18544;SDS011;9402;51.460;7.276;2024-01-30T00:30:01;13.10;;;7.73;;
18544;SDS011;9402;51.460;7.276;2024-01-30T00:32:03;14.33;;;7.30;;
18544;SDS011;9402;51.460;7.276;2024-01-30T00:34:05;9.53;;;7.30;;
18544;SDS011;9402;51.460;7.276;2024-01-30T00:36:07;10.80;;;7.03;;
18544;SDS011;9402;51.460;7.276;2024-01-30T00:38:09;11.67;;;6.40;;
18544;SDS011;9402;51.460;7.276;2024-01-30T00:40:11;10.00;;;7.13;;
18544;SDS011;9402;51.460;7.276;2024-01-30T00:42:15;13.50;;;7.10;;
18544;SDS011;9402;51.460;7.276;2024-01-30T00:44:16;8.90;;;7.40;;
18544;SDS011;9402;51.460;7.276;2024-01-30T00:46:18;8.27;;;6.90;;
18544;SDS011;9402;51.460;7.276;2024-01-30T00:48:19;10.30;;;6.73;;
18544;SDS011;9402;51.460;7.276;2024-01-30T00:50:21;12.50;;;7.03;;
18544;SDS011;9402;51.460;7.276;2024-01-30T00:52:23;13.53;;;7.57;;
18544;SDS011;9402;51.460;7.276;2024-01-30T00:54:26;10.17;;;6.83;;
18544;SDS011;9402;51.460;7.276;2024-01-30T00:56:27;11.90;;;7.23;;
18544;SDS011;9402;51.460;7.276;2024-01-30T00:58:29;9.27;;;7.20;;
18544;SDS011;9402;51.460;7.276;2024-01-30T01:00:31;11.00;;;6.47;;
18544;SDS011;9402;51.460;7.276;2024-01-30T01:02:33;12.57;;;8.20;;
18544;SDS011;9402;51.460;7.276;2024-01-30T01:04:35;13.40;;;7.80;;
18544;SDS011;9402;51.460;7.276;2024-01-30T01:06:37;14.53;;;8.43;;
18544;SDS011;9402;51.460;7.276;2024-01-30T01:08:38;11.53;;;7.30;;
18544;SDS011;9402;51.460;7.276;2024-01-30T01:10:41;10.20;;;7.20;;
18544;SDS011;9402;51.460;7.276;2024-01-30T01:12:42;14.57;;;8.20;;
18544;SDS011;9402;51.460;7.276;2024-01-30T01:14:43;21.27;;;7.83;;
18544;SDS011;9402;51.460;7.276;2024-01-30T01:16:45;10.60;;;6.70;;
18544;SDS011;9402;51.460;7.276;2024-01-30T01:18:47;9.80;;;6.90;;
18544;SDS011;9402;51.460;7.276;2024-01-30T01:20:48;12.43;;;7.50;;
18544;SDS011;9402;51.460;7.276;2024-01-30T01:22:50;13.70;;;8.27;;
18544;SDS011;9402;51.460;7.276;2024-01-30T01:24:52;8.87;;;6.40;;
18544;SDS011;9402;51.460;7.276;2024-01-30T01:26:55;22.03;;;7.13;;
18544;SDS011;9402;51.460;7.276;2024-01-30T01:28:57;14.27;;;7.70;;
18544;SDS011;9402;51.460;7.276;2024-01-30T01:30:59;10.23;;;7.07;;
18544;SDS011;9402;51.460;7.276;2024-01-30T01:33:05;9.80;;;6.33;;
18544;SDS011;9402;51.460;7.276;2024-01-30T01:35:06;13.70;;;7.97;;
18544;SDS011;9402;51.460;7.276;2024-01-30T01:37:08;12.70;;;7.63;;
18544;SDS011;9402;51.460;7.276;2024-01-30T01:39:10;10.87;;;7.10;;
18544;SDS011;9402;51.460;7.276;2024-01-30T01:41:11;12.03;;;7.03;;
18544;SDS011;9402;51.460;7.276;2024-01-30T01:43:14;14.73;;;8.17;;
18544;SDS011;9402;51.460;7.276;2024-01-30T01:45:16;15.07;;;8.40;;
18544;SDS011;9402;51.460;7.276;2024-01-30T01:47:17;13.13;;;7.30;;
18544;SDS011;9402;51.460;7.276;2024-01-30T01:49:19;12.80;;;7.90;;
18544;SDS011;9402;51.460;7.276;2024-01-30T01:51:21;13.23;;;7.47;;
18544;SDS011;9402;51.460;7.276;2024-01-30T01:53:23;11.83;;;7.30;;
18544;SDS011;9402;51.460;7.276;2024-01-30T01:55:24;12.30;;;7.57;;
18544;SDS011;9402;51.460;7.276;2024-01-30T01:57:28;12.37;;;7.70;;
18544;SDS011;9402;51.460;7.276;2024-01-30T01:59:31;9.50;;;6.70;;
18544;SDS011;9402;51.460;7.276;2024-01-30T02:01:32;15.10;;;7.97;;
18544;SDS011;9402;51.460;7.276;2024-01-30T02:03:35;11.70;;;6.90;;
18544;SDS011;9402;51.460;7.276;2024-01-30T02:05:36;14.57;;;7.33;;
18544;SDS011;9402;51.460;7.276;2024-01-30T02:07:37;11.20;;;7.57;;
18544;SDS011;9402;51.460;7.276;2024-01-30T02:09:39;16.13;;;7.80;;
18544;SDS011;9402;51.460;7.276;2024-01-30T02:11:40;12.30;;;7.30;;
18544;SDS011;9402;51.460;7.276;2024-01-30T02:13:42;11.83;;;7.90;;
18544;SDS011;9402;51.460;7.276;2024-01-30T02:15:45;18.63;;;7.50;;
18544;SDS011;9402;51.460;7.276;2024-01-30T02:17:49;17.20;;;7.40;;
18544;SDS011;9402;51.460;7.276;2024-01-30T02:19:51;13.93;;;7.43;;
18544;SDS011;9402;51.460;7.276;2024-01-30T02:21:54;7.80;;;6.57;;
18544;SDS011;9402;51.460;7.276;2024-01-30T02:23:55;12.00;;;7.70;;
18544;SDS011;9402;51.460;7.276;2024-01-30T02:25:58;10.17;;;6.40;;
18544;SDS011;9402;51.460;7.276;2024-01-30T02:27:58;9.60;;;7.17;;
18544;SDS011;9402;51.460;7.276;2024-01-30T02:30:00;8.57;;;6.80;;
18544;SDS011;9402;51.460;7.276;2024-01-30T02:32:01;12.40;;;7.40;;
18544;SDS011;9402;51.460;7.276;2024-01-30T02:34:02;9.97;;;6.17;;
18544;SDS011;9402;51.460;7.276;2024-01-30T02:36:04;14.23;;;8.03;;
18544;SDS011;9402;51.460;7.276;2024-01-30T02:38:07;15.80;;;7.67;;
18544;SDS011;9402;51.460;7.276;2024-01-30T02:40:09;16.60;;;7.93;;
18544;SDS011;9402;51.460;7.276;2024-01-30T02:42:09;8.10;;;6.23;;
18544;SDS011;9402;51.460;7.276;2024-01-30T02:44:11;12.93;;;7.13;;
18544;SDS011;9402;51.460;7.276;2024-01-30T02:46:11;11.17;;;7.20;;
18544;SDS011;9402;51.460;7.276;2024-01-30T02:48:13;10.37;;;7.00;;
18544;SDS011;9402;51.460;7.276;2024-01-30T02:50:15;15.40;;;7.40;;
18544;SDS011;9402;51.460;7.276;2024-01-30T02:52:16;15.20;;;7.27;;
18544;SDS011;9402;51.460;7.276;2024-01-30T02:54:20;11.63;;;7.10;;
18544;SDS011;9402;51.460;7.276;2024-01-30T02:56:22;10.23;;;6.50;;
18544;SDS011;9402;51.460;7.276;2024-01-30T02:58:23;13.50;;;7.70;;
18544;SDS011;9402;51.460;7.276;2024-01-30T03:00:24;10.17;;;6.97;;
18544;SDS011;9402;51.460;7.276;2024-01-30T03:02:26;12.17;;;7.50;;
18544;SDS011;9402;51.460;7.276;2024-01-30T03:04:27;10.50;;;7.17;;
18544;SDS011;9402;51.460;7.276;2024-01-30T03:06:30;13.77;;;7.50;;
18544;SDS011;9402;51.460;7.276;2024-01-30T03:08:30;12.20;;;6.53;;
18544;SDS011;9402;51.460;7.276;2024-01-30T03:10:33;11.60;;;7.10;;
18544;SDS011;9402;51.460;7.276;2024-01-30T03:12:34;11.40;;;7.67;;
18544;SDS011;9402;51.460;7.276;2024-01-30T03:14:36;12.27;;;7.30;;
18544;SDS011;9402;51.460;7.276;2024-01-30T03:16:37;11.37;;;7.00;;
18544;SDS011;9402;51.460;7.276;2024-01-30T03:18:39;14.03;;;7.30;;
18544;SDS011;9402;51.460;7.276;2024-01-30T03:20:40;13.27;;;7.00;;
18544;SDS011;9402;51.460;7.276;2024-01-30T03:22:41;7.57;;;6.20;;
18544;SDS011;9402;51.460;7.276;2024-01-30T03:24:43;7.70;;;6.13;;
18544;SDS011;9402;51.460;7.276;2024-01-30T03:26:46;14.47;;;7.20;;
18544;SDS011;9402;51.460;7.276;2024-01-30T03:28:47;9.50;;;7.17;;
18544;SDS011;9402;51.460;7.276;2024-01-30T03:30:49;16.20;;;6.17;;
18544;SDS011;9402;51.460;7.276;2024-01-30T03:32:50;8.70;;;6.50;;
18544;SDS011;9402;51.460;7.276;2024-01-30T03:34:51;11.60;;;6.73;;
18544;SDS011;9402;51.460;7.276;2024-01-30T03:36:53;14.43;;;7.00;;
18544;SDS011;9402;51.460;7.276;2024-01-30T03:38:54;15.23;;;7.03;;
18544;SDS011;9402;51.460;7.276;2024-01-30T03:40:56;12.13;;;5.87;;
18544;SDS011;9402;51.460;7.276;2024-01-30T03:42:58;8.70;;;5.80;;
18544;SDS011;9402;51.460;7.276;2024-01-30T03:45:00;8.13;;;6.23;;
18544;SDS011;9402;51.460;7.276;2024-01-30T03:47:02;8.97;;;7.03;;
18544;SDS011;9402;51.460;7.276;2024-01-30T03:49:03;11.40;;;7.27;;
18544;SDS011;9402;51.460;7.276;2024-01-30T03:51:05;11.73;;;6.53;;
18544;SDS011;9402;51.460;7.276;2024-01-30T03:53:06;12.43;;;6.60;;
18544;SDS011;9402;51.460;7.276;2024-01-30T03:55:07;18.70;;;7.30;;
18544;SDS011;9402;51.460;7.276;2024-01-30T03:57:09;12.20;;;6.40;;
18544;SDS011;9402;51.460;7.276;2024-01-30T03:59:12;7.70;;;6.43;;
18544;SDS011;9402;51.460;7.276;2024-01-30T04:01:14;11.87;;;6.47;;
18544;SDS011;9402;51.460;7.276;2024-01-30T04:03:15;7.73;;;5.70;;
18544;SDS011;9402;51.460;7.276;2024-01-30T04:05:17;13.10;;;6.70;;
18544;SDS011;9402;51.460;7.276;2024-01-30T04:07:19;10.10;;;6.60;;
18544;SDS011;9402;51.460;7.276;2024-01-30T04:09:20;11.93;;;6.60;;
18544;SDS011;9402;51.460;7.276;2024-01-30T04:11:22;15.17;;;7.07;;
18544;SDS011;9402;51.460;7.276;2024-01-30T04:13:23;18.10;;;6.43;;
18544;SDS011;9402;51.460;7.276;2024-01-30T04:15:27;7.83;;;5.93;;
18544;SDS011;9402;51.460;7.276;2024-01-30T04:17:29;13.20;;;6.30;;
18544;SDS011;9402;51.460;7.276;2024-01-30T04:19:31;9.27;;;6.43;;
18544;SDS011;9402;51.460;7.276;2024-01-30T04:21:32;8.80;;;6.40;;
18544;SDS011;9402;51.460;7.276;2024-01-30T04:23:34;12.50;;;6.63;;
18544;SDS011;9402;51.460;7.276;2024-01-30T04:25:35;6.53;;;5.77;;
18544;SDS011;9402;51.460;7.276;2024-01-30T04:27:37;12.10;;;6.30;;
18544;SDS011;9402;51.460;7.276;2024-01-30T04:29:38;9.60;;;6.23;;
18544;SDS011;9402;51.460;7.276;2024-01-30T04:31:41;7.20;;;5.83;;
18544;SDS011;9402;51.460;7.276;2024-01-30T04:33:43;13.60;;;6.53;;
18544;SDS011;9402;51.460;7.276;2024-01-30T04:35:44;14.83;;;6.47;;
18544;SDS011;9402;51.460;7.276;2024-01-30T04:37:45;11.23;;;6.40;;
18544;SDS011;9402;51.460;7.276;2024-01-30T04:39:47;7.90;;;5.40;;
18544;SDS011;9402;51.460;7.276;2024-01-30T04:41:48;8.30;;;5.83;;
18544;SDS011;9402;51.460;7.276;2024-01-30T04:43:50;17.27;;;6.47;;
18544;SDS011;9402;51.460;7.276;2024-01-30T04:45:51;18.60;;;6.30;;
18544;SDS011;9402;51.460;7.276;2024-01-30T04:47:54;15.40;;;6.73;;
18544;SDS011;9402;51.460;7.276;2024-01-30T04:49:56;10.57;;;6.50;;
18544;SDS011;9402;51.460;7.276;2024-01-30T04:51:57;9.77;;;5.60;;
18544;SDS011;9402;51.460;7.276;2024-01-30T04:53:58;10.10;;;6.60;;
18544;SDS011;9402;51.460;7.276;2024-01-30T04:56:00;10.50;;;6.33;;
18544;SDS011;9402;51.460;7.276;2024-01-30T04:58:02;14.70;;;5.90;;
18544;SDS011;9402;51.460;7.276;2024-01-30T05:00:04;12.10;;;6.70;;
18544;SDS011;9402;51.460;7.276;2024-01-30T05:02:06;12.10;;;6.40;;
18544;SDS011;9402;51.460;7.276;2024-01-30T05:04:09;10.13;;;5.30;;
18544;SDS011;9402;51.460;7.276;2024-01-30T05:06:11;7.33;;;6.03;;
18544;SDS011;9402;51.460;7.276;2024-01-30T05:08:13;13.40;;;6.73;;
18544;SDS011;9402;51.460;7.276;2024-01-30T05:10:14;6.10;;;5.50;;
18544;SDS011;9402;51.460;7.276;2024-01-30T05:12:16;15.40;;;5.40;;
18544;SDS011;9402;51.460;7.276;2024-01-30T05:14:18;8.47;;;6.40;;
18544;SDS011;9402;51.460;7.276;2024-01-30T05:16:19;6.37;;;5.03;;
18544;SDS011;9402;51.460;7.276;2024-01-30T05:18:21;9.77;;;6.10;;
18544;SDS011;9402;51.460;7.276;2024-01-30T05:20:24;10.10;;;5.97;;
18544;SDS011;9402;51.460;7.276;2024-01-30T05:22:28;10.30;;;5.80;;
18544;SDS011;9402;51.460;7.276;2024-01-30T05:24:29;19.53;;;6.57;;
18544;SDS011;9402;51.460;7.276;2024-01-30T05:26:30;13.60;;;6.10;;
18544;SDS011;9402;51.460;7.276;2024-01-30T05:28:31;11.07;;;5.90;;
18544;SDS011;9402;51.460;7.276;2024-01-30T05:30:32;9.30;;;5.67;;
18544;SDS011;9402;51.460;7.276;2024-01-30T05:32:34;12.00;;;6.20;;
18544;SDS011;9402;51.460;7.276;2024-01-30T05:34:36;12.00;;;6.20;;
18544;SDS011;9402;51.460;7.276;2024-01-30T05:36:39;10.50;;;5.80;;
18544;SDS011;9402;51.460;7.276;2024-01-30T05:38:41;9.50;;;6.17;;
18544;SDS011;9402;51.460;7.276;2024-01-30T05:40:42;11.30;;;6.37;;
18544;SDS011;9402;51.460;7.276;2024-01-30T05:42:44;8.30;;;6.27;;
18544;SDS011;9402;51.460;7.276;2024-01-30T05:44:46;10.50;;;6.20;;
18544;SDS011;9402;51.460;7.276;2024-01-30T05:46:46;24.07;;;6.77;;
18544;SDS011;9402;51.460;7.276;2024-01-30T05:48:48;10.17;;;6.40;;
18544;SDS011;9402;51.460;7.276;2024-01-30T05:50:49;9.30;;;6.10;;
18544;SDS011;9402;51.460;7.276;2024-01-30T05:52:52;7.43;;;5.53;;
18544;SDS011;9402;51.460;7.276;2024-01-30T05:54:54;13.07;;;6.40;;
18544;SDS011;9402;51.460;7.276;2024-01-30T05:56:55;9.83;;;6.20;;
18544;SDS011;9402;51.460;7.276;2024-01-30T05:58:57;9.57;;;6.50;;
18544;SDS011;9402;51.460;7.276;2024-01-30T06:00:58;11.10;;;6.17;;
18544;SDS011;9402;51.460;7.276;2024-01-30T06:02:59;13.40;;;6.60;;
18544;SDS011;9402;51.460;7.276;2024-01-30T06:05:01;9.50;;;5.80;;
18544;SDS011;9402;51.460;7.276;2024-01-30T06:07:03;9.63;;;6.60;;
18544;SDS011;9402;51.460;7.276;2024-01-30T06:09:07;10.07;;;6.17;;
18544;SDS011;9402;51.460;7.276;2024-01-30T06:11:09;9.27;;;7.10;;
18544;SDS011;9402;51.460;7.276;2024-01-30T06:13:11;10.30;;;6.23;;
18544;SDS011;9402;51.460;7.276;2024-01-30T06:15:13;10.33;;;6.30;;
18544;SDS011;9402;51.460;7.276;2024-01-30T06:17:14;11.60;;;6.33;;
18544;SDS011;9402;51.460;7.276;2024-01-30T06:19:16;9.20;;;5.50;;
18544;SDS011;9402;51.460;7.276;2024-01-30T06:21:18;8.40;;;6.40;;
18544;SDS011;9402;51.460;7.276;2024-01-30T06:23:20;9.13;;;6.20;;
18544;SDS011;9402;51.460;7.276;2024-01-30T06:25:23;9.33;;;5.97;;
18544;SDS011;9402;51.460;7.276;2024-01-30T06:27:24;11.03;;;6.60;;
18544;SDS011;9402;51.460;7.276;2024-01-30T06:29:26;15.93;;;6.33;;
18544;SDS011;9402;51.460;7.276;2024-01-30T06:31:28;7.50;;;5.67;;
18544;SDS011;9402;51.460;7.276;2024-01-30T06:33:29;12.23;;;6.13;;
18544;SDS011;9402;51.460;7.276;2024-01-30T06:35:31;11.77;;;6.40;;
18544;SDS011;9402;51.460;7.276;2024-01-30T06:37:32;12.27;;;6.40;;
18544;SDS011;9402;51.460;7.276;2024-01-30T06:39:34;10.53;;;6.27;;
18544;SDS011;9402;51.460;7.276;2024-01-30T06:41:37;14.60;;;6.30;;
18544;SDS011;9402;51.460;7.276;2024-01-30T06:43:38;11.70;;;6.40;;
18544;SDS011;9402;51.460;7.276;2024-01-30T06:45:40;14.03;;;6.33;;
18544;SDS011;9402;51.460;7.276;2024-01-30T06:47:42;10.20;;;6.30;;
18544;SDS011;9402;51.460;7.276;2024-01-30T06:49:44;16.10;;;6.23;;
18544;SDS011;9402;51.460;7.276;2024-01-30T06:51:45;11.83;;;6.57;;
18544;SDS011;9402;51.460;7.276;2024-01-30T06:53:47;9.20;;;6.50;;
18544;SDS011;9402;51.460;7.276;2024-01-30T06:55:48;10.13;;;5.57;;
18544;SDS011;9402;51.460;7.276;2024-01-30T06:57:50;8.50;;;5.40;;
18544;SDS011;9402;51.460;7.276;2024-01-30T06:59:52;12.87;;;5.90;;
18544;SDS011;9402;51.460;7.276;2024-01-30T07:01:53;12.10;;;5.57;;
18544;SDS011;9402;51.460;7.276;2024-01-30T07:03:55;9.77;;;5.60;;
18544;SDS011;9402;51.460;7.276;2024-01-30T07:05:57;7.73;;;6.00;;
18544;SDS011;9402;51.460;7.276;2024-01-30T07:07:57;10.40;;;6.13;;
18544;SDS011;9402;51.460;7.276;2024-01-30T07:09:59;14.20;;;6.20;;
18544;SDS011;9402;51.460;7.276;2024-01-30T07:12:01;6.30;;;5.50;;
18544;SDS011;9402;51.460;7.276;2024-01-30T07:14:04;10.73;;;6.07;;
18544;SDS011;9402;51.460;7.276;2024-01-30T07:16:06;12.13;;;7.40;;
18544;SDS011;9402;51.460;7.276;2024-01-30T07:18:07;11.33;;;6.27;;
18544;SDS011;9402;51.460;7.276;2024-01-30T07:20:10;7.97;;;5.77;;
18544;SDS011;9402;51.460;7.276;2024-01-30T07:22:12;11.60;;;6.30;;
18544;SDS011;9402;51.460;7.276;2024-01-30T07:24:13;19.23;;;6.27;;
18544;SDS011;9402;51.460;7.276;2024-01-30T07:26:15;13.37;;;6.43;;
18544;SDS011;9402;51.460;7.276;2024-01-30T07:28:16;10.60;;;5.97;;
18544;SDS011;9402;51.460;7.276;2024-01-30T07:30:18;14.50;;;5.93;;
18544;SDS011;9402;51.460;7.276;2024-01-30T07:32:20;8.80;;;5.57;;
18544;SDS011;9402;51.460;7.276;2024-01-30T07:34:22;13.00;;;6.40;;
18544;SDS011;9402;51.460;7.276;2024-01-30T07:36:23;8.90;;;6.33;;
18544;SDS011;9402;51.460;7.276;2024-01-30T07:38:24;15.03;;;6.57;;
18544;SDS011;9402;51.460;7.276;2024-01-30T07:40:25;13.33;;;7.80;;
18544;SDS011;9402;51.460;7.276;2024-01-30T07:42:27;13.80;;;9.00;;
18544;SDS011;9402;51.460;7.276;2024-01-30T07:44:28;12.30;;;8.97;;
18544;SDS011;9402;51.460;7.276;2024-01-30T07:46:31;25.13;;;11.37;;
18544;SDS011;9402;51.460;7.276;2024-01-30T07:48:32;20.00;;;10.30;;
18544;SDS011;9402;51.460;7.276;2024-01-30T07:50:34;17.07;;;9.13;;
18544;SDS011;9402;51.460;7.276;2024-01-30T07:52:35;11.70;;;8.23;;
18544;SDS011;9402;51.460;7.276;2024-01-30T07:54:37;13.97;;;9.10;;
18544;SDS011;9402;51.460;7.276;2024-01-30T07:56:39;23.80;;;16.20;;
18544;SDS011;9402;51.460;7.276;2024-01-30T07:58:40;26.10;;;15.50;;
18544;SDS011;9402;51.460;7.276;2024-01-30T08:00:41;44.03;;;25.23;;
18544;SDS011;9402;51.460;7.276;2024-01-30T08:02:43;91.83;;;48.13;;
18544;SDS011;9402;51.460;7.276;2024-01-30T08:04:45;53.00;;;30.07;;
18544;SDS011;9402;51.460;7.276;2024-01-30T08:06:48;31.97;;;21.13;;
18544;SDS011;9402;51.460;7.276;2024-01-30T08:08:50;47.77;;;30.23;;
18544;SDS011;9402;51.460;7.276;2024-01-30T08:10:53;62.27;;;35.80;;
18544;SDS011;9402;51.460;7.276;2024-01-30T08:12:54;83.87;;;42.53;;
18544;SDS011;9402;51.460;7.276;2024-01-30T08:14:55;34.10;;;18.27;;
18544;SDS011;9402;51.460;7.276;2024-01-30T08:16:57;17.93;;;11.70;;
18544;SDS011;9402;51.460;7.276;2024-01-30T08:19:00;27.17;;;14.30;;
18544;SDS011;9402;51.460;7.276;2024-01-30T08:21:02;26.47;;;17.03;;
18544;SDS011;9402;51.460;7.276;2024-01-30T08:23:04;16.80;;;13.53;;
18544;SDS011;9402;51.460;7.276;2024-01-30T08:25:06;20.27;;;14.60;;
18544;SDS011;9402;51.460;7.276;2024-01-30T08:27:07;16.07;;;12.20;;
18544;SDS011;9402;51.460;7.276;2024-01-30T08:29:10;14.93;;;8.50;;
18544;SDS011;9402;51.460;7.276;2024-01-30T08:31:11;13.67;;;9.60;;
18544;SDS011;9402;51.460;7.276;2024-01-30T08:33:13;16.40;;;9.40;;
18544;SDS011;9402;51.460;7.276;2024-01-30T08:35:16;12.23;;;7.47;;
18544;SDS011;9402;51.460;7.276;2024-01-30T08:37:18;13.67;;;7.67;;
18544;SDS011;9402;51.460;7.276;2024-01-30T08:39:19;11.23;;;7.93;;
18544;SDS011;9402;51.460;7.276;2024-01-30T08:41:21;13.87;;;7.93;;
18544;SDS011;9402;51.460;7.276;2024-01-30T08:43:22;15.23;;;8.20;;
18544;SDS011;9402;51.460;7.276;2024-01-30T08:45:23;18.10;;;8.03;;
18544;SDS011;9402;51.460;7.276;2024-01-30T08:47:25;9.37;;;6.87;;
18544;SDS011;9402;51.460;7.276;2024-01-30T08:49:25;14.73;;;8.27;;
18544;SDS011;9402;51.460;7.276;2024-01-30T08:51:28;11.73;;;7.53;;
18544;SDS011;9402;51.460;7.276;2024-01-30T08:53:30;13.87;;;9.40;;
18544;SDS011;9402;51.460;7.276;2024-01-30T08:55:31;15.77;;;8.10;;
18544;SDS011;9402;51.460;7.276;2024-01-30T08:57:33;13.97;;;8.40;;
18544;SDS011;9402;51.460;7.276;2024-01-30T08:59:35;9.00;;;5.90;;
18544;SDS011;9402;51.460;7.276;2024-01-30T09:01:36;16.43;;;6.03;;
18544;SDS011;9402;51.460;7.276;2024-01-30T09:03:38;10.23;;;6.40;;
18544;SDS011;9402;51.460;7.276;2024-01-30T09:05:41;13.73;;;6.70;;
18544;SDS011;9402;51.460;7.276;2024-01-30T09:07:44;8.23;;;5.63;;
18544;SDS011;9402;51.460;7.276;2024-01-30T09:09:46;14.03;;;8.70;;
18544;SDS011;9402;51.460;7.276;2024-01-30T09:11:47;16.10;;;9.90;;
18544;SDS011;9402;51.460;7.276;2024-01-30T09:13:49;10.60;;;7.33;;
18544;SDS011;9402;51.460;7.276;2024-01-30T09:15:50;17.53;;;11.73;;
18544;SDS011;9402;51.460;7.276;2024-01-30T09:17:52;16.40;;;10.07;;
18544;SDS011;9402;51.460;7.276;2024-01-30T09:19:54;15.50;;;9.50;;
18544;SDS011;9402;51.460;7.276;2024-01-30T09:21:54;14.60;;;8.60;;
18544;SDS011;9402;51.460;7.276;2024-01-30T09:24:01;11.73;;;7.30;;
18544;SDS011;9402;51.460;7.276;2024-01-30T09:26:04;13.07;;;8.90;;
18544;SDS011;9402;51.460;7.276;2024-01-30T09:28:05;17.03;;;9.40;;
18544;SDS011;9402;51.460;7.276;2024-01-30T09:30:07;10.73;;;6.60;;
18544;SDS011;9402;51.460;7.276;2024-01-30T09:32:09;11.77;;;6.70;;
18544;SDS011;9402;51.460;7.276;2024-01-30T09:34:11;12.67;;;6.80;;
18544;SDS011;9402;51.460;7.276;2024-01-30T09:36:12;13.50;;;6.97;;
18544;SDS011;9402;51.460;7.276;2024-01-30T09:38:15;11.30;;;8.40;;
18544;SDS011;9402;51.460;7.276;2024-01-30T09:40:18;12.60;;;7.00;;
18544;SDS011;9402;51.460;7.276;2024-01-30T09:42:21;10.13;;;7.67;;
18544;SDS011;9402;51.460;7.276;2024-01-30T09:44:28;24.73;;;15.40;;
18544;SDS011;9402;51.460;7.276;2024-01-30T09:46:30;31.40;;;17.30;;
18544;SDS011;9402;51.460;7.276;2024-01-30T09:48:33;50.73;;;27.37;;
18544;SDS011;9402;51.460;7.276;2024-01-30T09:50:35;38.57;;;24.70;;
18544;SDS011;9402;51.460;7.276;2024-01-30T09:52:37;51.73;;;33.40;;
18544;SDS011;9402;51.460;7.276;2024-01-30T09:54:39;31.23;;;20.70;;
18544;SDS011;9402;51.460;7.276;2024-01-30T09:56:43;34.60;;;21.47;;
18544;SDS011;9402;51.460;7.276;2024-01-30T09:58:44;91.93;;;53.93;;
18544;SDS011;9402;51.460;7.276;2024-01-30T10:00:46;65.57;;;38.57;;
18544;SDS011;9402;51.460;7.276;2024-01-30T10:02:48;34.27;;;24.03;;
18544;SDS011;9402;51.460;7.276;2024-01-30T10:04:50;22.50;;;14.77;;
18544;SDS011;9402;51.460;7.276;2024-01-30T10:06:52;40.00;;;22.37;;
18544;SDS011;9402;51.460;7.276;2024-01-30T10:08:52;40.60;;;23.80;;
18544;SDS011;9402;51.460;7.276;2024-01-30T10:10:54;44.83;;;26.20;;
18544;SDS011;9402;51.460;7.276;2024-01-30T10:12:57;47.87;;;27.10;;
18544;SDS011;9402;51.460;7.276;2024-01-30T10:14:59;25.00;;;16.20;;
18544;SDS011;9402;51.460;7.276;2024-01-30T10:17:01;10.93;;;6.37;;
18544;SDS011;9402;51.460;7.276;2024-01-30T10:19:02;12.90;;;6.60;;
18544;SDS011;9402;51.460;7.276;2024-01-30T10:21:04;12.60;;;5.57;;
18544;SDS011;9402;51.460;7.276;2024-01-30T10:23:06;9.50;;;5.87;;
18544;SDS011;9402;51.460;7.276;2024-01-30T10:25:07;15.60;;;6.00;;
18544;SDS011;9402;51.460;7.276;2024-01-30T10:27:10;13.73;;;5.67;;
18544;SDS011;9402;51.460;7.276;2024-01-30T10:29:13;9.83;;;6.27;;
18544;SDS011;9402;51.460;7.276;2024-01-30T10:31:16;16.10;;;6.10;;
18544;SDS011;9402;51.460;7.276;2024-01-30T10:33:18;8.10;;;6.00;;
18544;SDS011;9402;51.460;7.276;2024-01-30T10:35:20;8.43;;;5.70;;
18544;SDS011;9402;51.460;7.276;2024-01-30T10:37:21;10.47;;;5.47;;
18544;SDS011;9402;51.460;7.276;2024-01-30T10:39:28;10.00;;;5.50;;
18544;SDS011;9402;51.460;7.276;2024-01-30T10:41:30;14.33;;;6.20;;
18544;SDS011;9402;51.460;7.276;2024-01-30T10:43:35;12.10;;;5.60;;
18544;SDS011;9402;51.460;7.276;2024-01-30T10:45:38;7.87;;;5.57;;
18544;SDS011;9402;51.460;7.276;2024-01-30T10:47:40;9.17;;;5.27;;
18544;SDS011;9402;51.460;7.276;2024-01-30T10:49:45;9.20;;;5.03;;
18544;SDS011;9402;51.460;7.276;2024-01-30T10:51:46;15.40;;;6.03;;
18544;SDS011;9402;51.460;7.276;2024-01-30T10:53:48;8.70;;;5.10;;
18544;SDS011;9402;51.460;7.276;2024-01-30T10:55:49;6.03;;;4.30;;
18544;SDS011;9402;51.460;7.276;2024-01-30T10:57:52;5.37;;;4.70;;
18544;SDS011;9402;51.460;7.276;2024-01-30T10:59:55;10.70;;;4.50;;
18544;SDS011;9402;51.460;7.276;2024-01-30T11:01:58;11.40;;;5.30;;
18544;SDS011;9402;51.460;7.276;2024-01-30T11:04:01;11.10;;;5.20;;
18544;SDS011;9402;51.460;7.276;2024-01-30T11:06:02;15.73;;;4.43;;
18544;SDS011;9402;51.460;7.276;2024-01-30T11:08:11;8.13;;;4.67;;
18544;SDS011;9402;51.460;7.276;2024-01-30T11:10:13;7.43;;;4.73;;
18544;SDS011;9402;51.460;7.276;2024-01-30T11:12:15;9.33;;;4.60;;
18544;SDS011;9402;51.460;7.276;2024-01-30T11:14:15;13.53;;;4.67;;
18544;SDS011;9402;51.460;7.276;2024-01-30T11:16:17;17.13;;;4.33;;
18544;SDS011;9402;51.460;7.276;2024-01-30T11:18:25;8.30;;;4.80;;
18544;SDS011;9402;51.460;7.276;2024-01-30T11:20:29;7.27;;;5.00;;
18544;SDS011;9402;51.460;7.276;2024-01-30T11:22:31;14.23;;;5.77;;
18544;SDS011;9402;51.460;7.276;2024-01-30T11:24:36;7.53;;;5.20;;
18544;SDS011;9402;51.460;7.276;2024-01-30T11:26:42;9.37;;;4.80;;
18544;SDS011;9402;51.460;7.276;2024-01-30T11:28:43;10.73;;;5.10;;
18544;SDS011;9402;51.460;7.276;2024-01-30T11:31:02;11.50;;;5.53;;
18544;SDS011;9402;51.460;7.276;2024-01-30T11:33:05;8.27;;;4.37;;
18544;SDS011;9402;51.460;7.276;2024-01-30T11:35:10;9.63;;;5.40;;
18544;SDS011;9402;51.460;7.276;2024-01-30T11:37:12;8.37;;;4.57;;
18544;SDS011;9402;51.460;7.276;2024-01-30T11:39:14;11.90;;;4.60;;
18544;SDS011;9402;51.460;7.276;2024-01-30T11:41:18;13.10;;;5.73;;
18544;SDS011;9402;51.460;7.276;2024-01-30T11:43:19;18.03;;;4.70;;
18544;SDS011;9402;51.460;7.276;2024-01-30T11:45:21;12.10;;;5.23;;
18544;SDS011;9402;51.460;7.276;2024-01-30T11:47:22;10.53;;;5.03;;
18544;SDS011;9402;51.460;7.276;2024-01-30T11:49:24;10.03;;;5.00;;
18544;SDS011;9402;51.460;7.276;2024-01-30T11:51:26;15.70;;;4.93;;
18544;SDS011;9402;51.460;7.276;2024-01-30T11:53:28;13.30;;;4.80;;
18544;SDS011;9402;51.460;7.276;2024-01-30T11:55:29;7.13;;;4.60;;
18544;SDS011;9402;51.460;7.276;2024-01-30T11:57:31;12.73;;;5.60;;
18544;SDS011;9402;51.460;7.276;2024-01-30T11:59:32;13.80;;;5.50;;
18544;SDS011;9402;51.460;7.276;2024-01-30T12:01:34;12.00;;;5.10;;
18544;SDS011;9402;51.460;7.276;2024-01-30T12:03:36;11.90;;;5.07;;
18544;SDS011;9402;51.460;7.276;2024-01-30T12:05:37;14.90;;;5.57;;
18544;SDS011;9402;51.460;7.276;2024-01-30T12:07:45;9.30;;;5.27;;
18544;SDS011;9402;51.460;7.276;2024-01-30T12:09:51;7.93;;;4.83;;
18544;SDS011;9402;51.460;7.276;2024-01-30T12:11:53;10.30;;;4.90;;
18544;SDS011;9402;51.460;7.276;2024-01-30T12:13:55;19.20;;;5.53;;
18544;SDS011;9402;51.460;7.276;2024-01-30T12:15:57;9.70;;;5.27;;
18544;SDS011;9402;51.460;7.276;2024-01-30T12:18:05;17.27;;;5.67;;